KUOX/UOX METAR and TAF weather

Enter ICAO airport designator
Station Type Date Time Source
KUOX METAR 2022/12/04 12:15 UTC NOAA

KUOX 041215Z AUTO 00000KT 10SM CLR 00/M02 A3033 RMK AO2


Station Type Date Time Source
KUOX Decoded METAR 2022/12/04 12:15 UTC NOAA

Oxford, University-Oxford Airport, MS, United States (KUOX) 34-23-04N 089-32-08W
Dec 04, 2022 - 07:15 AM EST / 2022.12.04 1215 UTC
Wind: Calm:0
Visibility: 10 mile(s):0
Sky conditions: clear
Temperature: 32 F (0 C)
Dew Point: 28 F (-2 C)
Relative Humidity: 86%
Pressure (altimeter): 30.33 in. Hg (1027 hPa)
ob: KUOX 041215Z AUTO 00000KT 10SM CLR 00/M02 A3033 RMK AO2
cycle: 12

Station Type Date Time Source
KUOX TAF UTC NOAA

Error!

Example: see airport list